KPHT/PHT METAR and TAF weather

Enter ICAO airport designator
Station Type Date Time Source
KPHT METAR 2020/07/10 22:55 UTC NOAA

KPHT 102255Z AUTO VRB04KT 10SM CLR 30/19 A2996 RMK A01


Station Type Date Time Source
KPHT Decoded METAR 2020/07/10 22:55 UTC NOAA

Station name not available
Jul 10, 2020 - 06:55 PM EDT / 2020.07.10 2255 UTC
Wind: Variable at 5 MPH (4 KT):0
Visibility: 10 mile(s):0
Sky conditions: clear
Temperature: 86 F (30 C)
Dew Point: 66 F (19 C)
Relative Humidity: 51%
Pressure (altimeter): 29.96 in. Hg (1014 hPa)
ob: KPHT 102255Z AUTO VRB04KT 10SM CLR 30/19 A2996 RMK A01
cycle: 23

Station Type Date Time Source
KPHT TAF UTC NOAA

Error!

Example: see airport list